sensor_id;sensor_type;location;lat;lon;timestamp;pressure;altitude;pressure_sealevel;temperature;humidity
55540;BME280;41384;51.418;7.286;2023-09-19T00:00:17;99071.56;;;17.63;97.01
55540;BME280;41384;51.418;7.286;2023-09-19T00:02:46;99073.72;;;17.45;98.46
55540;BME280;41384;51.418;7.286;2023-09-19T00:05:12;99071.06;;;17.40;99.46
55540;BME280;41384;51.418;7.286;2023-09-19T00:07:37;99076.13;;;17.47;99.41
55540;BME280;41384;51.418;7.286;2023-09-19T00:10:03;99080.13;;;17.55;98.73
55540;BME280;41384;51.418;7.286;2023-09-19T00:12:29;99086.28;;;17.40;99.16
55540;BME280;41384;51.418;7.286;2023-09-19T00:14:55;99088.69;;;17.41;99.74
55540;BME280;41384;51.418;7.286;2023-09-19T00:17:21;99089.75;;;17.19;99.68
55540;BME280;41384;51.418;7.286;2023-09-19T00:19:47;99095.63;;;17.27;99.45
55540;BME280;41384;51.418;7.286;2023-09-19T00:22:16;99094.28;;;17.29;99.09
55540;BME280;41384;51.418;7.286;2023-09-19T00:24:42;99101.50;;;17.29;99.25
55540;BME280;41384;51.418;7.286;2023-09-19T00:27:07;99089.75;;;17.45;97.28
55540;BME280;41384;51.418;7.286;2023-09-19T00:29:33;99098.56;;;17.20;96.90
55540;BME280;41384;51.418;7.286;2023-09-19T00:31:58;99100.44;;;17.30;95.16
55540;BME280;41384;51.418;7.286;2023-09-19T00:34:24;99095.63;;;17.32;94.71
55540;BME280;41384;51.418;7.286;2023-09-19T00:36:50;99098.81;;;17.18;94.84
55540;BME280;41384;51.418;7.286;2023-09-19T00:39:18;99103.34;;;17.33;94.16
55540;BME280;41384;51.418;7.286;2023-09-19T00:41:45;99108.41;;;17.04;94.32
55540;BME280;41384;51.418;7.286;2023-09-19T00:44:10;99109.47;;;17.13;93.35
55540;BME280;41384;51.418;7.286;2023-09-19T00:46:37;99112.69;;;17.15;92.92
55540;BME280;41384;51.418;7.286;2023-09-19T00:49:02;99108.41;;;17.19;92.44
55540;BME280;41384;51.418;7.286;2023-09-19T00:51:28;99111.38;;;17.18;92.02
55540;BME280;41384;51.418;7.286;2023-09-19T00:53:55;99114.28;;;17.11;92.38
55540;BME280;41384;51.418;7.286;2023-09-19T00:56:20;99119.63;;;17.11;91.27
55540;BME280;41384;51.418;7.286;2023-09-19T00:58:46;99116.16;;;17.05;91.69
55540;BME280;41384;51.418;7.286;2023-09-19T01:01:12;99113.75;;;16.99;91.92
55540;BME280;41384;51.418;7.286;2023-09-19T01:03:40;99122.75;;;16.77;93.06
55540;BME280;41384;51.418;7.286;2023-09-19T01:06:06;99112.13;;;16.82;92.67
55540;BME280;41384;51.418;7.286;2023-09-19T01:08:32;99128.09;;;16.77;92.87
55540;BME280;41384;51.418;7.286;2023-09-19T01:11:09;99124.09;;;16.74;92.50
55540;BME280;41384;51.418;7.286;2023-09-19T01:13:58;99133.19;;;16.84;92.02
55540;BME280;41384;51.418;7.286;2023-09-19T01:16:35;99133.44;;;16.92;90.99
55540;BME280;41384;51.418;7.286;2023-09-19T01:19:23;99128.44;;;17.01;91.35
55540;BME280;41384;51.418;7.286;2023-09-19T01:30:35;99138.56;;;17.04;89.41
55540;BME280;41384;51.418;7.286;2023-09-19T01:33:01;99136.97;;;17.09;90.39
55540;BME280;41384;51.418;7.286;2023-09-19T01:35:29;99145.91;;;16.66;91.72
55540;BME280;41384;51.418;7.286;2023-09-19T01:37:54;99150.47;;;16.71;91.92
55540;BME280;41384;51.418;7.286;2023-09-19T01:40:21;99156.38;;;16.88;91.35
55540;BME280;41384;51.418;7.286;2023-09-19T01:43:09;99159.50;;;16.65;91.99
55540;BME280;41384;51.418;7.286;2023-09-19T01:48:19;99156.06;;;16.74;91.46
55540;BME280;41384;51.418;7.286;2023-09-19T01:50:59;99167.56;;;16.96;89.97
55540;BME280;41384;51.418;7.286;2023-09-19T01:53:27;99175.06;;;17.09;89.14
55540;BME280;41384;51.418;7.286;2023-09-19T01:55:57;99174.81;;;17.00;89.06
55540;BME280;41384;51.418;7.286;2023-09-19T01:58:48;99164.59;;;16.76;88.41
55540;BME280;41384;51.418;7.286;2023-09-19T02:01:22;99162.22;;;16.85;88.86
55540;BME280;41384;51.418;7.286;2023-09-19T02:03:50;99165.41;;;16.72;89.15
55540;BME280;41384;51.418;7.286;2023-09-19T02:06:15;99166.75;;;16.85;88.99
55540;BME280;41384;51.418;7.286;2023-09-19T02:08:43;99168.06;;;16.72;89.32
55540;BME280;41384;51.418;7.286;2023-09-19T02:11:10;99168.59;;;16.74;88.26
55540;BME280;41384;51.418;7.286;2023-09-19T02:13:36;99169.88;;;16.61;87.55
55540;BME280;41384;51.418;7.286;2023-09-19T02:16:01;99174.97;;;16.62;88.94
55540;BME280;41384;51.418;7.286;2023-09-19T02:18:29;99181.38;;;16.67;87.46
55540;BME280;41384;51.418;7.286;2023-09-19T02:20:55;99171.75;;;16.60;87.93
55540;BME280;41384;51.418;7.286;2023-09-19T02:23:21;99186.66;;;16.56;87.50
55540;BME280;41384;51.418;7.286;2023-09-19T02:25:56;99183.44;;;16.49;88.25
55540;BME280;41384;51.418;7.286;2023-09-19T02:28:31;99187.75;;;16.60;88.59
55540;BME280;41384;51.418;7.286;2023-09-19T02:30:57;99187.75;;;16.60;87.58
55540;BME280;41384;51.418;7.286;2023-09-19T02:33:23;99197.28;;;16.46;88.11
55540;BME280;41384;51.418;7.286;2023-09-19T02:35:48;99190.63;;;16.48;88.83
55540;BME280;41384;51.418;7.286;2023-09-19T02:38:13;99199.69;;;16.53;87.90
55540;BME280;41384;51.418;7.286;2023-09-19T02:40:43;99202.31;;;16.42;88.70
55540;BME280;41384;51.418;7.286;2023-09-19T02:43:08;99193.78;;;16.40;88.76
55540;BME280;41384;51.418;7.286;2023-09-19T02:45:34;99197.56;;;16.49;87.90
55540;BME280;41384;51.418;7.286;2023-09-19T02:47:59;99195.75;;;16.60;87.04
55540;BME280;41384;51.418;7.286;2023-09-19T02:50:25;99201.31;;;16.64;86.43
55540;BME280;41384;51.418;7.286;2023-09-19T02:52:50;99198.16;;;16.77;85.63
55540;BME280;41384;51.418;7.286;2023-09-19T02:55:17;99201.66;;;16.83;85.00
55540;BME280;41384;51.418;7.286;2023-09-19T02:57:48;99205.88;;;16.69;85.49
55540;BME280;41384;51.418;7.286;2023-09-19T03:00:15;99212.16;;;16.37;86.66
55540;BME280;41384;51.418;7.286;2023-09-19T03:02:40;99204.97;;;16.42;86.87
55540;BME280;41384;51.418;7.286;2023-09-19T03:05:07;99219.34;;;16.41;86.81
55540;BME280;41384;51.418;7.286;2023-09-19T03:07:33;99219.72;;;16.60;86.10
55540;BME280;41384;51.418;7.286;2023-09-19T03:09:58;99213.41;;;16.18;85.83
55540;BME280;41384;51.418;7.286;2023-09-19T03:12:25;99218.41;;;16.15;86.76
55540;BME280;41384;51.418;7.286;2023-09-19T03:14:50;99228.34;;;16.25;85.94
55540;BME280;41384;51.418;7.286;2023-09-19T03:17:15;99239.06;;;16.40;85.60
55540;BME280;41384;51.418;7.286;2023-09-19T03:19:41;99228.69;;;16.39;84.04
55540;BME280;41384;51.418;7.286;2023-09-19T03:22:06;99239.28;;;16.33;83.37
55540;BME280;41384;51.418;7.286;2023-09-19T03:24:32;99226.16;;;16.16;84.11
55540;BME280;41384;51.418;7.286;2023-09-19T03:27:00;99233.34;;;16.16;83.39
55540;BME280;41384;51.418;7.286;2023-09-19T03:29:25;99233.16;;;16.33;82.48
55540;BME280;41384;51.418;7.286;2023-09-19T03:31:52;99237.13;;;16.30;81.00
55540;BME280;41384;51.418;7.286;2023-09-19T03:34:19;99235.53;;;16.29;80.01
55540;BME280;41384;51.418;7.286;2023-09-19T03:36:44;99236.69;;;16.44;79.06
55540;BME280;41384;51.418;7.286;2023-09-19T03:39:10;99227.63;;;16.40;78.86
55540;BME280;41384;51.418;7.286;2023-09-19T03:41:35;99232.88;;;16.29;78.91
55540;BME280;41384;51.418;7.286;2023-09-19T03:44:02;99229.69;;;16.32;77.92
55540;BME280;41384;51.418;7.286;2023-09-19T03:46:27;99233.94;;;16.28;77.97
55540;BME280;41384;51.418;7.286;2023-09-19T03:48:53;99232.91;;;16.34;78.31
55540;BME280;41384;51.418;7.286;2023-09-19T03:51:20;99228.00;;;16.16;78.41
55540;BME280;41384;51.418;7.286;2023-09-19T03:53:45;99226.69;;;16.13;78.79
55540;BME280;41384;51.418;7.286;2023-09-19T03:56:10;99233.34;;;16.16;77.97
55540;BME280;41384;51.418;7.286;2023-09-19T03:58:35;99238.19;;;16.29;77.93
55540;BME280;41384;51.418;7.286;2023-09-19T04:01:04;99231.28;;;16.33;78.40
55540;BME280;41384;51.418;7.286;2023-09-19T04:03:32;99241.69;;;16.35;77.89
55540;BME280;41384;51.418;7.286;2023-09-19T04:06:14;99230.72;;;16.26;78.08
55540;BME280;41384;51.418;7.286;2023-09-19T04:08:40;99241.69;;;16.35;78.33
55540;BME280;41384;51.418;7.286;2023-09-19T04:11:06;99239.06;;;16.40;78.52
55540;BME280;41384;51.418;7.286;2023-09-19T04:13:31;99237.25;;;16.46;78.40
55540;BME280;41384;51.418;7.286;2023-09-19T04:15:57;99225.28;;;16.05;79.53
55540;BME280;41384;51.418;7.286;2023-09-19T04:18:22;99231.50;;;16.22;78.87
55540;BME280;41384;51.418;7.286;2023-09-19T04:20:52;99245.13;;;16.30;79.13
55540;BME280;41384;51.418;7.286;2023-09-19T04:23:18;99232.63;;;16.31;80.11
55540;BME280;41384;51.418;7.286;2023-09-19T04:25:46;99233.34;;;16.21;80.36
55540;BME280;41384;51.418;7.286;2023-09-19T04:28:11;99240.59;;;16.26;80.24
55540;BME280;41384;51.418;7.286;2023-09-19T04:30:37;99231.00;;;16.25;80.57
55540;BME280;41384;51.418;7.286;2023-09-19T04:33:05;99237.66;;;16.27;80.64
55540;BME280;41384;51.418;7.286;2023-09-19T04:35:31;99243.00;;;16.32;80.38
55540;BME280;41384;51.418;7.286;2023-09-19T04:37:56;99242.75;;;16.29;80.94
55540;BME280;41384;51.418;7.286;2023-09-19T04:40:22;99239.84;;;16.36;81.31
55540;BME280;41384;51.418;7.286;2023-09-19T04:42:54;99241.19;;;16.38;81.15
55540;BME280;41384;51.418;7.286;2023-09-19T04:45:22;99238.72;;;16.26;81.30
55540;BME280;41384;51.418;7.286;2023-09-19T04:47:47;99244.59;;;16.33;80.92
55540;BME280;41384;51.418;7.286;2023-09-19T04:50:12;99254.66;;;16.21;80.99
55540;BME280;41384;51.418;7.286;2023-09-19T04:52:42;99247.84;;;16.36;81.25
55540;BME280;41384;51.418;7.286;2023-09-19T04:55:12;99250.81;;;16.49;80.42
55540;BME280;41384;51.418;7.286;2023-09-19T04:57:43;99246.25;;;16.40;81.04
55540;BME280;41384;51.418;7.286;2023-09-19T05:00:10;99255.06;;;16.45;80.84
55540;BME280;41384;51.418;7.286;2023-09-19T05:02:38;99251.50;;;16.29;80.95
55540;BME280;41384;51.418;7.286;2023-09-19T05:05:05;99247.28;;;16.33;81.69
55540;BME280;41384;51.418;7.286;2023-09-19T05:07:31;99254.53;;;16.43;80.73
55540;BME280;41384;51.418;7.286;2023-09-19T05:09:56;99261.63;;;16.27;80.40
55540;BME280;41384;51.418;7.286;2023-09-19T05:12:21;99267.22;;;16.26;81.00
55540;BME280;41384;51.418;7.286;2023-09-19T05:14:47;99271.75;;;16.30;80.65
55540;BME280;41384;51.418;7.286;2023-09-19T05:17:13;99285.69;;;16.38;80.80
55540;BME280;41384;51.418;7.286;2023-09-19T05:19:38;99285.59;;;16.27;81.05
55540;BME280;41384;51.418;7.286;2023-09-19T05:22:04;99282.63;;;16.18;81.11
55540;BME280;41384;51.418;7.286;2023-09-19T05:24:29;99279.41;;;16.16;81.03
55540;BME280;41384;51.418;7.286;2023-09-19T05:26:55;99282.78;;;16.07;81.45
55540;BME280;41384;51.418;7.286;2023-09-19T05:29:22;99296.00;;;16.29;80.93
55540;BME280;41384;51.418;7.286;2023-09-19T05:31:47;99296.72;;;16.19;80.48
55540;BME280;41384;51.418;7.286;2023-09-19T05:34:12;99309.88;;;16.36;80.28
55540;BME280;41384;51.418;7.286;2023-09-19T05:36:38;99308.34;;;16.08;81.19
55540;BME280;41384;51.418;7.286;2023-09-19T05:39:04;99324.66;;;16.16;81.03
55540;BME280;41384;51.418;7.286;2023-09-19T05:41:31;99312.63;;;16.09;81.01
55540;BME280;41384;51.418;7.286;2023-09-19T05:43:56;99311.81;;;16.03;81.91
55540;BME280;41384;51.418;7.286;2023-09-19T05:46:21;99316.03;;;15.99;81.73
55540;BME280;41384;51.418;7.286;2023-09-19T05:48:47;99311.81;;;16.03;82.18
55540;BME280;41384;51.418;7.286;2023-09-19T05:51:12;99330.75;;;16.12;82.01
55540;BME280;41384;51.418;7.286;2023-09-19T05:53:38;99342.06;;;16.29;80.82
55540;BME280;41384;51.418;7.286;2023-09-19T05:56:03;99337.81;;;15.96;81.57
55540;BME280;41384;51.418;7.286;2023-09-19T05:58:28;99335.06;;;16.18;81.53
55540;BME280;41384;51.418;7.286;2023-09-19T06:00:54;99338.69;;;16.07;81.47
55540;BME280;41384;51.418;7.286;2023-09-19T06:03:21;99345.81;;;15.96;82.57
55540;BME280;41384;51.418;7.286;2023-09-19T06:05:46;99352.03;;;16.12;81.77
55540;BME280;41384;51.418;7.286;2023-09-19T06:08:14;99343.81;;;16.13;82.00
55540;BME280;41384;51.418;7.286;2023-09-19T06:10:39;99346.59;;;15.96;82.48
55540;BME280;41384;51.418;7.286;2023-09-19T06:13:05;99355.72;;;16.05;82.43
55540;BME280;41384;51.418;7.286;2023-09-19T06:15:31;99345.63;;;16.08;82.68
55540;BME280;41384;51.418;7.286;2023-09-19T06:17:58;99354.22;;;16.20;82.17
55540;BME280;41384;51.418;7.286;2023-09-19T06:20:25;99349.81;;;16.31;81.81
55540;BME280;41384;51.418;7.286;2023-09-19T06:22:50;99344.72;;;16.29;81.38
55540;BME280;41384;51.418;7.286;2023-09-19T06:25:16;99348.94;;;16.25;82.02
55540;BME280;41384;51.418;7.286;2023-09-19T06:27:48;99337.91;;;16.06;82.33
55540;BME280;41384;51.418;7.286;2023-09-19T06:30:14;99349.72;;;16.21;82.00
55540;BME280;41384;51.418;7.286;2023-09-19T06:32:41;99350.47;;;16.16;83.03
55540;BME280;41384;51.418;7.286;2023-09-19T06:35:10;99344.94;;;16.23;82.10
55540;BME280;41384;51.418;7.286;2023-09-19T06:37:39;99344.91;;;16.17;81.88
55540;BME280;41384;51.418;7.286;2023-09-19T06:40:07;99357.75;;;16.26;81.69
55540;BME280;41384;51.418;7.286;2023-09-19T06:42:34;99361.69;;;16.18;82.46
55540;BME280;41384;51.418;7.286;2023-09-19T06:45:00;99349.22;;;16.24;82.54
55540;BME280;41384;51.418;7.286;2023-09-19T06:47:25;99356.34;;;16.18;82.63
55540;BME280;41384;51.418;7.286;2023-09-19T06:49:51;99350.88;;;15.97;83.02
55540;BME280;41384;51.418;7.286;2023-09-19T06:52:17;99345.38;;;16.09;83.34
55540;BME280;41384;51.418;7.286;2023-09-19T06:54:42;99347.22;;;16.09;83.54
55540;BME280;41384;51.418;7.286;2023-09-19T06:57:07;99353.13;;;16.16;84.11
55540;BME280;41384;51.418;7.286;2023-09-19T06:59:35;99349.38;;;16.12;84.25
55540;BME280;41384;51.418;7.286;2023-09-19T07:02:02;99350.03;;;16.29;83.50
55540;BME280;41384;51.418;7.286;2023-09-19T07:04:27;99361.75;;;16.28;82.77
55540;BME280;41384;51.418;7.286;2023-09-19T07:06:53;99349.28;;;16.34;83.12
55540;BME280;41384;51.418;7.286;2023-09-19T07:09:18;99359.22;;;16.44;82.93
55540;BME280;41384;51.418;7.286;2023-09-19T07:11:47;99362.84;;;16.32;83.29
55540;BME280;41384;51.418;7.286;2023-09-19T07:14:15;99352.56;;;16.46;82.97
55540;BME280;41384;51.418;7.286;2023-09-19T07:16:41;99359.09;;;16.28;82.69
55540;BME280;41384;51.418;7.286;2023-09-19T07:19:09;99363.34;;;16.29;82.92
55540;BME280;41384;51.418;7.286;2023-09-19T07:21:35;99361.69;;;16.56;82.42
55540;BME280;41384;51.418;7.286;2023-09-19T07:24:04;99363.50;;;16.45;82.32
55540;BME280;41384;51.418;7.286;2023-09-19T07:26:30;99355.22;;;16.46;82.71
55540;BME280;41384;51.418;7.286;2023-09-19T07:28:56;99366.13;;;16.40;82.58
55540;BME280;41384;51.418;7.286;2023-09-19T07:31:22;99376.28;;;16.48;83.01
55540;BME280;41384;51.418;7.286;2023-09-19T07:33:48;99379.56;;;16.60;82.02
55540;BME280;41384;51.418;7.286;2023-09-19T07:36:14;99384.66;;;16.67;82.05
55540;BME280;41384;51.418;7.286;2023-09-19T07:38:40;99384.53;;;16.46;82.42
55540;BME280;41384;51.418;7.286;2023-09-19T07:41:07;99388.91;;;16.63;82.08
55540;BME280;41384;51.418;7.286;2023-09-19T07:43:34;99371.84;;;16.64;82.32
55540;BME280;41384;51.418;7.286;2023-09-19T07:46:03;99378.13;;;16.47;81.99
55540;BME280;41384;51.418;7.286;2023-09-19T07:48:29;99375.28;;;16.54;82.82
55540;BME280;41384;51.418;7.286;2023-09-19T07:50:54;99371.56;;;16.60;82.00
55540;BME280;41384;51.418;7.286;2023-09-19T07:53:20;99376.13;;;16.65;81.45
55540;BME280;41384;51.418;7.286;2023-09-19T07:55:45;99374.06;;;16.77;81.46
55540;BME280;41384;51.418;7.286;2023-09-19T07:58:13;99380.19;;;16.78;81.84
55540;BME280;41384;51.418;7.286;2023-09-19T08:00:38;99377.56;;;16.83;81.77
55540;BME280;41384;51.418;7.286;2023-09-19T08:03:04;99370.97;;;16.96;81.28
55540;BME280;41384;51.418;7.286;2023-09-19T08:05:29;99388.53;;;16.92;81.51
55540;BME280;41384;51.418;7.286;2023-09-19T08:07:54;99397.44;;;16.65;81.92
55540;BME280;41384;51.418;7.286;2023-09-19T08:10:21;99397.34;;;16.92;81.93
55540;BME280;41384;51.418;7.286;2023-09-19T08:12:47;99391.44;;;16.85;81.18
55540;BME280;41384;51.418;7.286;2023-09-19T08:15:14;99400.50;;;16.89;80.85
55540;BME280;41384;51.418;7.286;2023-09-19T08:17:40;99409.59;;;16.93;81.36
55540;BME280;41384;51.418;7.286;2023-09-19T08:20:06;99406.38;;;16.91;81.18
55540;BME280;41384;51.418;7.286;2023-09-19T08:22:32;99403.94;;;16.80;82.16
55540;BME280;41384;51.418;7.286;2023-09-19T08:24:57;99404.88;;;17.01;81.09
55540;BME280;41384;51.418;7.286;2023-09-19T08:27:23;99415.56;;;17.06;81.39
55540;BME280;41384;51.418;7.286;2023-09-19T08:29:52;99414.16;;;16.93;81.15
55540;BME280;41384;51.418;7.286;2023-09-19T08:32:17;99412.88;;;17.06;81.35
55540;BME280;41384;51.418;7.286;2023-09-19T08:34:45;99414.66;;;16.90;82.11
55540;BME280;41384;51.418;7.286;2023-09-19T08:37:10;99419.31;;;17.10;80.81
55540;BME280;41384;51.418;7.286;2023-09-19T08:39:35;99421.41;;;17.03;80.99
55540;BME280;41384;51.418;7.286;2023-09-19T08:42:02;99411.81;;;17.02;81.40
55540;BME280;41384;51.418;7.286;2023-09-19T08:44:28;99422.47;;;17.02;81.40
55540;BME280;41384;51.418;7.286;2023-09-19T08:47:01;99414.28;;;17.14;81.12
55540;BME280;41384;51.418;7.286;2023-09-19T08:49:36;99407.88;;;17.15;80.16
55540;BME280;41384;51.418;7.286;2023-09-19T08:52:36;99411.16;;;17.38;80.49
55540;BME280;41384;51.418;7.286;2023-09-19T08:55:06;99390.09;;;17.36;79.34
55540;BME280;41384;51.418;7.286;2023-09-19T08:57:36;99416.22;;;17.29;79.53
55540;BME280;41384;51.418;7.286;2023-09-19T09:00:04;99414.13;;;17.46;79.68
55540;BME280;41384;51.418;7.286;2023-09-19T09:02:38;99413.09;;;17.58;79.49
55540;BME280;41384;51.418;7.286;2023-09-19T09:05:10;99412.34;;;17.73;78.15
55540;BME280;41384;51.418;7.286;2023-09-19T09:07:39;99414.72;;;17.64;77.76
55540;BME280;41384;51.418;7.286;2023-09-19T09:10:05;99412.84;;;17.59;77.79
55540;BME280;41384;51.418;7.286;2023-09-19T09:12:32;99410.22;;;17.75;77.58
55540;BME280;41384;51.418;7.286;2023-09-19T09:14:58;99417.44;;;17.90;77.49
55540;BME280;41384;51.418;7.286;2023-09-19T09:17:23;99416.91;;;17.93;76.67
55540;BME280;41384;51.418;7.286;2023-09-19T09:19:52;99415.59;;;17.90;76.12
55540;BME280;41384;51.418;7.286;2023-09-19T09:22:17;99411.56;;;17.98;75.93
55540;BME280;41384;51.418;7.286;2023-09-19T09:27:19;99416.13;;;17.98;74.90
55540;BME280;41384;51.418;7.286;2023-09-19T09:29:49;99414.28;;;18.03;73.96
55540;BME280;41384;51.418;7.286;2023-09-19T09:32:25;99413.22;;;18.04;73.99
55540;BME280;41384;51.418;7.286;2023-09-19T09:34:53;99404.41;;;18.14;73.35
55540;BME280;41384;51.418;7.286;2023-09-19T09:37:20;99407.38;;;18.23;73.85
55540;BME280;41384;51.418;7.286;2023-09-19T09:39:57;99414.84;;;18.31;73.81
55540;BME280;41384;51.418;7.286;2023-09-19T09:42:36;99406.81;;;18.42;73.34
55540;BME280;41384;51.418;7.286;2023-09-19T09:47:46;99404.16;;;18.36;71.20
55540;BME280;41384;51.418;7.286;2023-09-19T09:50:27;99404.69;;;18.49;71.14
55540;BME280;41384;51.418;7.286;2023-09-19T09:53:19;99416.97;;;18.45;69.32
55540;BME280;41384;51.418;7.286;2023-09-19T09:56:08;99404.16;;;18.42;70.38
55540;BME280;41384;51.418;7.286;2023-09-19T09:58:51;99414.28;;;18.55;70.80
55540;BME280;41384;51.418;7.286;2023-09-19T10:01:21;99405.47;;;18.70;70.61
55540;BME280;41384;51.418;7.286;2023-09-19T10:03:56;99409.44;;;18.78;70.48
55540;BME280;41384;51.418;7.286;2023-09-19T10:06:22;99399.28;;;18.75;69.27
55540;BME280;41384;51.418;7.286;2023-09-19T10:11:43;99408.31;;;18.94;68.82
55540;BME280;41384;51.418;7.286;2023-09-19T10:14:11;99404.56;;;18.95;67.70
55540;BME280;41384;51.418;7.286;2023-09-19T10:16:45;99389.63;;;19.05;67.10
55540;BME280;41384;51.418;7.286;2023-09-19T10:19:25;99392.84;;;19.02;66.82
55540;BME280;41384;51.418;7.286;2023-09-19T10:21:55;99385.34;;;19.09;66.60
55540;BME280;41384;51.418;7.286;2023-09-19T10:24:22;99395.69;;;19.21;67.10
55540;BME280;41384;51.418;7.286;2023-09-19T10:26:50;99392.97;;;19.31;67.39
55540;BME280;41384;51.418;7.286;2023-09-19T10:29:17;99395.59;;;19.42;66.52
55540;BME280;41384;51.418;7.286;2023-09-19T10:31:44;99386.53;;;19.37;65.05
55540;BME280;41384;51.418;7.286;2023-09-19T10:34:14;99387.88;;;19.35;64.02
55540;BME280;41384;51.418;7.286;2023-09-19T10:36:44;99386.25;;;19.39;64.51
55540;BME280;41384;51.418;7.286;2023-09-19T10:39:10;99379.06;;;19.34;62.71
55540;BME280;41384;51.418;7.286;2023-09-19T10:41:37;99368.88;;;19.36;63.66
55540;BME280;41384;51.418;7.286;2023-09-19T10:44:04;99376.09;;;19.41;63.07
55540;BME280;41384;51.418;7.286;2023-09-19T10:46:32;99383.56;;;19.44;63.21
55540;BME280;41384;51.418;7.286;2023-09-19T10:49:02;99395.88;;;19.45;63.07
55540;BME280;41384;51.418;7.286;2023-09-19T10:51:30;99385.97;;;19.46;61.49
55540;BME280;41384;51.418;7.286;2023-09-19T10:54:17;99381.94;;;19.48;62.33
55540;BME280;41384;51.418;7.286;2023-09-19T10:56:48;99386.75;;;19.46;62.97
55540;BME280;41384;51.418;7.286;2023-09-19T10:59:16;99385.75;;;19.32;63.02
55540;BME280;41384;51.418;7.286;2023-09-19T11:01:49;99380.63;;;19.46;63.05
55540;BME280;41384;51.418;7.286;2023-09-19T11:04:29;99385.44;;;19.49;61.77
55540;BME280;41384;51.418;7.286;2023-09-19T11:07:11;99383.78;;;19.53;62.49
55540;BME280;41384;51.418;7.286;2023-09-19T11:12:08;99385.97;;;19.46;62.09
55540;BME280;41384;51.418;7.286;2023-09-19T11:14:40;99379.84;;;19.40;60.58
55540;BME280;41384;51.418;7.286;2023-09-19T11:30:31;99374.94;;;19.97;59.44
55540;BME280;41384;51.418;7.286;2023-09-19T11:33:20;99374.34;;;20.06;59.67
55540;BME280;41384;51.418;7.286;2023-09-19T11:36:07;99368.50;;;19.98;59.17
55540;BME280;41384;51.418;7.286;2023-09-19T11:43:50;99372.44;;;20.11;57.41
55540;BME280;41384;51.418;7.286;2023-09-19T11:46:17;99369.19;;;20.15;57.46
55540;BME280;41384;51.418;7.286;2023-09-19T11:48:48;99364.78;;;20.29;57.66
55540;BME280;41384;51.418;7.286;2023-09-19T11:51:16;99371.53;;;20.21;57.19
55540;BME280;41384;51.418;7.286;2023-09-19T11:53:47;99370.28;;;20.14;57.69
55540;BME280;41384;51.418;7.286;2023-09-19T11:56:15;99371.31;;;20.18;56.96
55540;BME280;41384;51.418;7.286;2023-09-19T11:58:43;99367.44;;;20.00;57.43
55540;BME280;41384;51.418;7.286;2023-09-19T12:01:12;99372.19;;;20.08;57.66
55540;BME280;41384;51.418;7.286;2023-09-19T12:03:42;99373.00;;;20.08;56.64
55540;BME280;41384;51.418;7.286;2023-09-19T12:06:16;99391.09;;;20.22;57.86
55540;BME280;41384;51.418;7.286;2023-09-19T12:08:43;99371.50;;;20.26;57.38
55540;BME280;41384;51.418;7.286;2023-09-19T12:11:15;99377.38;;;20.29;56.94
55540;BME280;41384;51.418;7.286;2023-09-19T12:13:44;99374.41;;;20.30;56.09
55540;BME280;41384;51.418;7.286;2023-09-19T12:16:12;99366.44;;;20.25;56.46
55540;BME280;41384;51.418;7.286;2023-09-19T12:18:40;99357.81;;;20.28;56.52
55540;BME280;41384;51.418;7.286;2023-09-19T12:21:08;99355.41;;;20.26;55.54
55540;BME280;41384;51.418;7.286;2023-09-19T12:23:37;99361.13;;;20.20;55.42
55540;BME280;41384;51.418;7.286;2023-09-19T12:26:06;99366.38;;;20.30;56.18
55540;BME280;41384;51.418;7.286;2023-09-19T12:28:41;99347.88;;;20.29;55.51
55540;BME280;41384;51.418;7.286;2023-09-19T12:31:07;99343.34;;;20.29;55.24
55540;BME280;41384;51.418;7.286;2023-09-19T12:33:33;99335.31;;;20.29;55.00
55540;BME280;41384;51.418;7.286;2023-09-19T12:35:59;99347.00;;;20.38;54.18
55540;BME280;41384;51.418;7.286;2023-09-19T12:38:27;99343.59;;;20.33;53.31
55540;BME280;41384;51.418;7.286;2023-09-19T12:40:55;99337.94;;;20.34;52.81
55540;BME280;41384;51.418;7.286;2023-09-19T12:43:22;99348.56;;;20.45;53.15
55540;BME280;41384;51.418;7.286;2023-09-19T12:45:47;99339.84;;;20.34;51.87
55540;BME280;41384;51.418;7.286;2023-09-19T12:48:24;99322.88;;;20.38;52.21
55540;BME280;41384;51.418;7.286;2023-09-19T12:51:08;99321.69;;;20.50;52.92
55540;BME280;41384;51.418;7.286;2023-09-19T12:53:38;99317.09;;;20.55;52.09
55540;BME280;41384;51.418;7.286;2023-09-19T12:56:13;99307.84;;;20.67;51.99
55540;BME280;41384;51.418;7.286;2023-09-19T12:58:58;99316.09;;;20.70;51.45
55540;BME280;41384;51.418;7.286;2023-09-19T13:01:26;99323.06;;;20.71;50.58
55540;BME280;41384;51.418;7.286;2023-09-19T13:04:17;99320.94;;;20.68;50.56
55540;BME280;41384;51.418;7.286;2023-09-19T13:06:51;99324.16;;;20.70;50.90
55540;BME280;41384;51.418;7.286;2023-09-19T13:09:19;99315.75;;;20.77;50.23
55540;BME280;41384;51.418;7.286;2023-09-19T13:11:45;99337.38;;;20.91;50.66
55540;BME280;41384;51.418;7.286;2023-09-19T13:14:16;99316.75;;;20.87;49.50
55540;BME280;41384;51.418;7.286;2023-09-19T13:17:04;99308.19;;;20.84;49.01
55540;BME280;41384;51.418;7.286;2023-09-19T13:19:48;99321.41;;;20.81;48.20
55540;BME280;41384;51.418;7.286;2023-09-19T13:22:45;99316.53;;;20.83;48.72
55540;BME280;41384;51.418;7.286;2023-09-19T13:25:15;99313.22;;;20.91;49.50
55540;BME280;41384;51.418;7.286;2023-09-19T13:27:47;99320.53;;;20.85;48.89
55540;BME280;41384;51.418;7.286;2023-09-19T13:30:16;99316.53;;;20.83;49.41
55540;BME280;41384;51.418;7.286;2023-09-19T13:32:42;99320.59;;;20.80;48.78
55540;BME280;41384;51.418;7.286;2023-09-19T13:35:08;99323.03;;;20.77;49.35
55540;BME280;41384;51.418;7.286;2023-09-19T13:37:38;99325.16;;;20.80;49.54
55540;BME280;41384;51.418;7.286;2023-09-19T13:40:15;99322.47;;;20.75;49.65
55540;BME280;41384;51.418;7.286;2023-09-19T13:42:42;99335.88;;;20.75;49.30
55540;BME280;41384;51.418;7.286;2023-09-19T13:45:08;99329.75;;;20.74;49.86
55540;BME280;41384;51.418;7.286;2023-09-19T13:47:37;99328.47;;;20.66;49.48